Time;durP1;ratioP1;P1;durP2;ratioP2;P2;SDS_P1;SDS_P2;PMS_P1;PMS_P2;Temp;Humidity;BMP_temperature;BMP_pressure;BME280_temperature;BME280_humidity;BME280_pressure;Samples;Min_cycle;Max_cycle;Signal;HPM_P1;HPM_P2
2022/02/12 00:00:06;;;;;;;1.00;0.77;;;;;;;2.23;98.05;102537.88;4919412;29;20097;-74
2022/02/12 00:02:37;;;;;;;1.10;0.95;;;;;;;2.20;97.70;102535.72;4923772;29;20094;-74
2022/02/12 00:05:03;;;;;;;1.67;0.85;;;;;;;2.18;97.59;102543.16;4902974;29;20071;-73
2022/02/12 00:07:29;;;;;;;4.78;1.38;;;;;;;2.16;97.81;102555.88;4923607;29;20043;-73
2022/02/12 00:09:54;;;;;;;1.88;0.93;;;;;;;2.14;98.17;102549.19;4923826;29;20109;-74
2022/02/12 00:12:20;;;;;;;1.45;0.70;;;;;;;2.15;97.93;102556.91;4924236;29;20035;-73
2022/02/12 00:14:47;;;;;;;0.73;0.70;;;;;;;2.14;98.27;102554.50;4924662;29;20066;-73
2022/02/12 00:17:13;;;;;;;0.95;0.73;;;;;;;2.12;98.14;102560.09;4925023;29;20126;-73
2022/02/12 00:19:38;;;;;;;3.33;1.38;;;;;;;2.08;98.22;102558.16;4923023;29;20047;-73
2022/02/12 00:22:04;;;;;;;6.57;0.88;;;;;;;2.05;97.99;102564.00;4915101;29;20076;-73
2022/02/12 00:24:29;;;;;;;0.85;0.85;;;;;;;2.03;98.56;102574.06;4926668;29;20040;-74
2022/02/12 00:26:55;;;;;;;0.68;0.68;;;;;;;2.02;98.25;102572.44;4909087;29;20492;-74
2022/02/12 00:29:20;;;;;;;2.00;1.00;;;;;;;2.00;98.25;102575.38;4936665;28;20035;-73
2022/02/12 00:31:46;;;;;;;4.40;1.48;;;;;;;1.99;98.55;102572.97;4923447;29;20063;-73
2022/02/12 00:34:11;;;;;;;1.75;1.30;;;;;;;1.98;98.34;102572.16;4923528;29;20042;-74
2022/02/12 00:36:37;;;;;;;3.13;0.90;;;;;;;1.99;98.45;102578.28;4920869;29;20027;-74
2022/02/12 00:39:03;;;;;;;0.95;0.93;;;;;;;1.96;98.40;102578.75;4925559;29;20035;-74
2022/02/12 00:41:29;;;;;;;1.38;1.27;;;;;;;1.94;98.94;102575.53;4920488;29;20036;-73
2022/02/12 00:43:54;;;;;;;3.20;1.35;;;;;;;1.97;98.86;102567.91;4922263;29;20397;-74
2022/02/12 00:46:19;;;;;;;5.45;0.82;;;;;;;1.96;98.70;102573.44;4924127;29;20527;-74
2022/02/12 00:48:45;;;;;;;6.13;2.10;;;;;;;1.97;98.83;102573.22;4920693;29;20134;-74
2022/02/12 00:51:12;;;;;;;4.05;0.73;;;;;;;1.97;98.78;102567.91;4912413;29;20028;-74
2022/02/12 00:53:38;;;;;;;1.23;0.80;;;;;;;1.94;98.89;102562.25;4920775;29;20039;-74
2022/02/12 00:56:04;;;;;;;2.15;1.25;;;;;;;1.87;99.51;102562.47;4915895;29;20530;-73
2022/02/12 00:58:29;;;;;;;0.60;0.55;;;;;;;1.90;99.78;102563.84;4919708;29;20058;-73
2022/02/12 01:00:54;;;;;;;1.83;0.85;;;;;;;1.88;99.90;102565.94;4916265;29;20127;-74
2022/02/12 01:03:20;;;;;;;1.92;0.55;;;;;;;1.87;99.83;102570.44;4922401;29;20042;-73
2022/02/12 01:05:47;;;;;;;1.95;0.77;;;;;;;1.89;100.00;102572.84;4936328;28;20413;-74
2022/02/12 01:08:12;;;;;;;10.73;1.25;;;;;;;1.84;100.00;102574.38;4906464;29;20039;-74
2022/02/12 01:10:38;;;;;;;1.17;0.80;;;;;;;1.86;100.00;102568.81;4909487;29;20502;-74
2022/02/12 01:13:04;;;;;;;2.25;0.85;;;;;;;1.87;100.00;102566.97;4926174;29;20047;-74
2022/02/12 01:15:31;;;;;;;2.85;0.88;;;;;;;1.83;100.00;102564.03;4921328;29;20675;-73
2022/02/12 01:17:57;;;;;;;2.55;1.23;;;;;;;1.82;100.00;102565.06;4924408;29;20458;-74
2022/02/12 01:20:22;;;;;;;1.30;0.80;;;;;;;1.82;100.00;102573.84;4922992;29;20044;-74
2022/02/12 01:22:49;;;;;;;1.10;0.90;;;;;;;1.80;100.00;102564.53;4923954;29;20114;-73
2022/02/12 01:25:16;;;;;;;0.95;0.73;;;;;;;1.79;100.00;102568.22;4922748;28;21852;-74
2022/02/12 01:27:42;;;;;;;2.92;1.38;;;;;;;1.79;100.00;102563.72;4939933;28;20039;-74
2022/02/12 01:30:09;;;;;;;0.80;0.60;;;;;;;1.78;100.00;102563.97;4921299;29;20400;-74
2022/02/12 01:32:35;;;;;;;0.98;0.70;;;;;;;1.80;100.00;102559.22;4924750;29;20060;-73
2022/02/12 01:35:00;;;;;;;1.25;0.70;;;;;;;1.81;100.00;102561.63;4925377;29;20047;-73
2022/02/12 01:37:26;;;;;;;1.73;1.30;;;;;;;1.79;100.00;102562.91;4922371;29;20083;-74
2022/02/12 01:39:51;;;;;;;8.52;1.40;;;;;;;1.78;100.00;102575.38;4927230;28;20453;-74
2022/02/12 01:42:17;;;;;;;2.75;1.10;;;;;;;1.80;100.00;102567.97;4925163;29;20067;-74
2022/02/12 01:44:44;;;;;;;1.20;0.82;;;;;;;1.76;100.00;102566.84;4924381;29;20043;-74
2022/02/12 01:47:10;;;;;;;4.03;0.80;;;;;;;1.74;100.00;102560.22;4913307;29;20047;-73
2022/02/12 01:49:37;;;;;;;0.88;0.70;;;;;;;1.71;100.00;102571.31;4922138;29;20036;-73
2022/02/12 01:52:07;;;;;;;1.23;0.90;;;;;;;1.70;100.00;102567.84;4924621;29;20035;-73
2022/02/12 01:54:32;;;;;;;4.13;1.23;;;;;;;1.71;100.00;102566.81;4923174;29;20044;-74
2022/02/12 01:57:02;;;;;;;0.63;0.50;;;;;;;1.70;100.00;102567.84;4922476;29;20040;-74
2022/02/12 01:59:27;;;;;;;0.85;0.85;;;;;;;1.73;100.00;102575.34;4921343;29;20038;-74
2022/02/12 02:01:53;;;;;;;0.93;0.85;;;;;;;1.72;100.00;102565.75;4909056;29;20040;-74
2022/02/12 02:04:20;;;;;;;1.90;1.10;;;;;;;1.69;100.00;102566.25;4922964;29;20367;-73
2022/02/12 02:06:47;;;;;;;1.20;1.05;;;;;;;1.69;100.00;102565.44;4922213;29;20095;-73
2022/02/12 02:09:15;;;;;;;1.27;1.02;;;;;;;1.65;100.00;102557.19;4923229;29;20040;-74
2022/02/12 02:11:41;;;;;;;6.57;1.95;;;;;;;1.63;100.00;102563.78;4924239;29;20032;-74
2022/02/12 02:14:07;;;;;;;1.30;0.55;;;;;;;1.63;100.00;102553.97;4919770;29;20489;-73
2022/02/12 02:16:33;;;;;;;1.55;1.08;;;;;;;1.58;100.00;102564.53;4920870;29;20031;-74
2022/02/12 02:18:58;;;;;;;2.38;1.10;;;;;;;1.57;100.00;102547.00;4918603;29;20489;-73
2022/02/12 02:21:24;;;;;;;2.35;0.93;;;;;;;1.56;100.00;102545.41;4924111;29;20367;-74
2022/02/12 02:23:50;;;;;;;0.85;0.65;;;;;;;1.58;100.00;102543.31;4922829;29;20043;-74
2022/02/12 02:26:16;;;;;;;1.55;0.63;;;;;;;1.56;100.00;102545.41;4922390;28;20876;-74
2022/02/12 02:28:42;;;;;;;0.35;0.35;;;;;;;1.48;100.00;102534.41;4923501;29;20035;-74
2022/02/12 02:31:07;;;;;;;1.05;0.95;;;;;;;1.44;100.00;102534.09;4922689;29;20050;-74
2022/02/12 02:33:33;;;;;;;1.25;0.63;;;;;;;1.46;100.00;102547.13;4917779;29;20057;-73
2022/02/12 02:35:58;;;;;;;1.52;0.98;;;;;;;1.43;100.00;102537.00;4924434;29;20046;-73
2022/02/12 02:38:24;;;;;;;13.30;1.45;;;;;;;1.40;100.00;102530.34;4922263;29;20106;-74
2022/02/12 02:40:52;;;;;;;2.83;1.10;;;;;;;1.39;100.00;102520.78;4916575;29;20106;-74
2022/02/12 02:43:18;;;;;;;1.08;0.88;;;;;;;1.36;100.00;102515.97;4919642;29;20031;-73
2022/02/12 02:45:44;;;;;;;0.70;0.70;;;;;;;1.35;100.00;102517.03;4923174;29;20552;-73
2022/02/12 02:48:09;;;;;;;2.15;0.68;;;;;;;1.35;100.00;102524.16;4917309;29;20027;-73
2022/02/12 02:56:08;;;;;;;1.20;1.10;;;;;;;1.30;100.00;102527.56;4914533;29;20046;-73
2022/02/12 02:58:44;;;;;;;2.75;1.27;;;;;;;1.31;100.00;102518.56;4921273;29;20098;-74
2022/02/12 03:01:12;;;;;;;4.72;0.70;;;;;;;1.30;100.00;102505.50;4913805;29;20517;-74
2022/02/12 03:03:40;;;;;;;1.85;0.80;;;;;;;1.31;100.00;102507.94;4911818;29;20036;-74
2022/02/12 03:06:07;;;;;;;1.13;0.70;;;;;;;1.30;100.00;102511.63;4915678;29;20118;-74
2022/02/12 03:08:33;;;;;;;1.88;1.23;;;;;;;1.32;100.00;102514.84;4923053;29;20050;-74
2022/02/12 03:10:58;;;;;;;2.00;1.20;;;;;;;1.34;100.00;102518.06;4908333;29;21225;-74
2022/02/12 03:13:25;;;;;;;1.30;0.85;;;;;;;1.37;100.00;102514.94;4922865;29;20024;-74
2022/02/12 03:15:50;;;;;;;4.00;1.20;;;;;;;1.35;100.00;102514.38;4926992;29;20135;-74
2022/02/12 03:18:16;;;;;;;2.65;1.05;;;;;;;1.37;100.00;102504.31;4926753;29;20118;-73
2022/02/12 03:20:41;;;;;;;3.63;0.70;;;;;;;1.40;100.00;102509.09;4926780;29;20095;-74
2022/02/12 03:23:07;;;;;;;0.98;0.98;;;;;;;1.42;100.00;102512.31;4925788;29;20039;-74
2022/02/12 03:25:33;;;;;;;1.20;1.10;;;;;;;1.48;100.00;102511.34;4924746;29;20054;-73
2022/02/12 03:28:00;;;;;;;2.25;1.42;;;;;;;1.54;100.00;102512.19;4922041;29;20039;-73
2022/02/12 03:30:38;;;;;;;9.93;1.40;;;;;;;1.56;100.00;102505.59;4922567;29;20028;-73
2022/02/12 03:33:04;;;;;;;1.67;0.85;;;;;;;1.60;100.00;102497.94;4927002;29;20043;-74
2022/02/12 03:35:31;;;;;;;2.65;0.70;;;;;;;1.59;100.00;102502.44;4924556;29;20054;-74
2022/02/12 03:38:11;;;;;;;2.05;1.23;;;;;;;1.54;100.00;102491.75;4913576;29;20035;-73
2022/02/12 03:40:39;;;;;;;1.70;0.90;;;;;;;1.52;100.00;102491.22;4926515;29;20122;-74
2022/02/12 03:43:06;;;;;;;0.82;0.82;;;;;;;1.55;100.00;102490.69;4926381;29;20043;-73
2022/02/12 03:45:32;;;;;;;2.17;1.20;;;;;;;1.57;100.00;102495.75;4935018;28;20051;-73
2022/02/12 03:47:57;;;;;;;1.90;1.50;;;;;;;1.59;100.00;102491.81;4920951;29;20035;-73
2022/02/12 03:50:22;;;;;;;5.70;1.77;;;;;;;1.61;100.00;102486.25;4925108;29;20035;-74
2022/02/12 03:52:49;;;;;;;8.25;1.67;;;;;;;1.64;100.00;102491.88;4925015;29;20493;-73
2022/02/12 03:55:16;;;;;;;5.15;2.03;;;;;;;1.69;100.00;102493.78;4926783;29;20099;-74
2022/02/12 03:57:41;;;;;;;2.25;1.67;;;;;;;1.69;100.00;102499.06;4925876;29;20473;-73
2022/02/12 04:00:09;;;;;;;1.52;1.00;;;;;;;1.74;100.00;102496.50;4920606;29;20074;-73
2022/02/12 04:02:37;;;;;;;2.97;1.73;;;;;;;1.76;100.00;102492.53;4925213;29;20086;-74
2022/02/12 04:05:04;;;;;;;2.47;1.00;;;;;;;1.78;100.00;102493.06;4921480;29;20665;-73
2022/02/12 04:07:29;;;;;;;2.30;1.77;;;;;;;1.76;100.00;102497.81;4925021;29;20083;-74
2022/02/12 04:09:54;;;;;;;2.13;1.50;;;;;;;1.78;100.00;102495.72;4925785;29;20489;-73
2022/02/12 04:12:20;;;;;;;1.83;1.23;;;;;;;1.82;100.00;102488.88;4924597;29;20591;-73
2022/02/12 04:14:45;;;;;;;4.50;1.42;;;;;;;1.90;100.00;102486.84;4923497;29;20035;-73
2022/02/12 04:17:11;;;;;;;2.58;1.50;;;;;;;1.84;100.00;102484.09;4921742;29;20408;-74
2022/02/12 04:19:36;;;;;;;2.42;1.63;;;;;;;1.92;100.00;102484.72;4914384;29;20454;-73
2022/02/12 04:22:02;;;;;;;1.42;1.25;;;;;;;1.92;100.00;102487.38;4925641;29;20585;-73
2022/02/12 04:24:27;;;;;;;2.13;1.73;;;;;;;1.90;100.00;102482.28;4926027;29;20552;-73
2022/02/12 04:26:53;;;;;;;6.35;2.10;;;;;;;1.88;100.00;102476.44;4922023;29;20046;-73
2022/02/12 04:29:18;;;;;;;4.10;1.15;;;;;;;1.83;100.00;102487.03;4925218;29;20063;-74
2022/02/12 04:31:44;;;;;;;2.47;1.17;;;;;;;1.79;100.00;102486.72;4924479;29;20035;-73
2022/02/12 04:34:09;;;;;;;3.42;1.42;;;;;;;1.80;100.00;102475.03;4924255;29;20074;-73
2022/02/12 04:36:35;;;;;;;2.08;1.38;;;;;;;1.86;100.00;102473.22;4925007;29;20127;-74
2022/02/12 04:39:01;;;;;;;14.82;1.75;;;;;;;1.87;100.00;102469.53;4914199;29;20032;-73
2022/02/12 04:41:27;;;;;;;9.25;1.90;;;;;;;1.93;100.00;102467.72;4936885;28;21030;-73
2022/02/12 04:43:52;;;;;;;5.65;1.55;;;;;;;2.00;100.00;102465.66;4920720;29;20131;-74
2022/02/12 04:46:17;;;;;;;3.90;1.48;;;;;;;1.99;100.00;102464.88;4925514;29;20082;-74
2022/02/12 04:48:48;;;;;;;1.48;1.25;;;;;;;2.04;100.00;102464.09;4925264;29;20035;-73
2022/02/12 04:51:16;;;;;;;2.25;1.02;;;;;;;2.00;100.00;102463.81;4926504;29;20060;-72
2022/02/12 04:53:43;;;;;;;4.68;1.30;;;;;;;1.98;100.00;102447.31;4920838;29;20503;-73
2022/02/12 04:56:08;;;;;;;2.97;1.48;;;;;;;2.00;100.00;102449.72;4919940;29;20163;-73
2022/02/12 04:58:34;;;;;;;4.97;1.88;;;;;;;1.96;100.00;102448.63;4941794;28;20064;-73
2022/02/12 05:00:59;;;;;;;3.17;1.77;;;;;;;1.92;100.00;102440.34;4925235;29;20130;-74
2022/02/12 05:03:24;;;;;;;2.90;1.40;;;;;;;1.97;100.00;102436.94;4924025;29;20047;-73
2022/02/12 05:05:50;;;;;;;8.10;1.67;;;;;;;1.93;100.00;102439.31;4920761;29;20036;-74
2022/02/12 05:08:15;;;;;;;3.67;1.27;;;;;;;1.94;100.00;102442.75;4923495;29;20035;-73
2022/02/12 05:10:41;;;;;;;4.70;1.80;;;;;;;1.98;100.00;102436.69;4924481;29;21060;-73
2022/02/12 05:13:06;;;;;;;2.08;1.40;;;;;;;1.94;100.00;102437.44;4924521;29;20031;-73
2022/02/12 05:15:32;;;;;;;2.17;1.15;;;;;;;1.90;100.00;102429.19;4924768;29;20071;-73
2022/02/12 05:17:58;;;;;;;0.95;0.85;;;;;;;1.93;100.00;102431.34;4920563;29;20036;-73
2022/02/12 05:20:23;;;;;;;1.88;1.20;;;;;;;1.97;100.00;102429.00;4913321;29;20142;-73
2022/02/12 05:22:48;;;;;;;5.32;1.15;;;;;;;2.00;100.00;102431.13;4920974;29;20035;-74
2022/02/12 05:25:14;;;;;;;1.65;1.10;;;;;;;2.04;100.00;102426.91;4925222;29;20058;-74
2022/02/12 05:27:39;;;;;;;1.13;1.00;;;;;;;2.04;100.00;102426.91;4924629;29;20148;-73
2022/02/12 05:30:05;;;;;;;1.13;0.90;;;;;;;2.04;100.00;102426.91;4922843;29;20032;-73
2022/02/12 05:32:31;;;;;;;3.67;1.23;;;;;;;2.05;100.00;102426.69;4921633;29;20051;-73
2022/02/12 05:34:58;;;;;;;3.45;1.40;;;;;;;1.93;100.00;102417.25;4917626;29;20043;-74
2022/02/12 05:37:24;;;;;;;3.40;0.73;;;;;;;1.96;100.00;102414.09;4909117;29;20062;-73
2022/02/12 05:39:50;;;;;;;1.17;1.08;;;;;;;2.00;100.00;102421.31;4921896;29;20085;-72
2022/02/12 05:42:15;;;;;;;2.70;1.33;;;;;;;1.98;100.00;102411.97;4924161;29;20497;-73
2022/02/12 05:44:40;;;;;;;2.83;1.08;;;;;;;1.93;100.00;102410.09;4924753;29;20048;-74
2022/02/12 05:47:06;;;;;;;3.00;1.35;;;;;;;1.95;100.00;102420.47;4924448;29;20066;-74
2022/02/12 05:49:31;;;;;;;4.22;1.75;;;;;;;1.84;100.00;102415.06;4923080;29;20031;-73
2022/02/12 05:51:57;;;;;;;1.02;0.60;;;;;;;1.79;100.00;102400.94;4924266;29;20035;-74
2022/02/12 05:54:22;;;;;;;4.68;1.08;;;;;;;1.75;100.00;102402.50;4939751;28;20358;-73
2022/02/12 05:56:48;;;;;;;1.10;0.93;;;;;;;1.69;100.00;102398.19;4923534;29;20589;-74
2022/02/12 05:59:13;;;;;;;1.80;0.90;;;;;;;1.65;100.00;102399.75;4922534;29;20076;-74
2022/02/12 06:01:40;;;;;;;1.33;0.77;;;;;;;1.62;100.00;102389.66;4921383;29;20055;-74
2022/02/12 06:04:06;;;;;;;4.15;1.20;;;;;;;1.60;100.00;102399.72;4921301;29;20036;-73
2022/02/12 06:06:31;;;;;;;3.15;1.33;;;;;;;1.59;100.00;102388.28;4921755;29;20039;-74
2022/02/12 06:08:56;;;;;;;1.52;1.08;;;;;;;1.54;100.00;102395.41;4920853;29;20046;-75
2022/02/12 06:11:22;;;;;;;2.78;1.45;;;;;;;1.48;100.00;102389.25;4925858;29;20044;-74
2022/02/12 06:13:52;;;;;;;0.88;0.80;;;;;;;1.46;100.00;102395.84;4924255;29;20047;-75
2022/02/12 06:16:22;;;;;;;0.82;0.80;;;;;;;1.44;100.00;102388.16;4923700;29;20044;-74
2022/02/12 06:18:48;;;;;;;1.00;0.80;;;;;;;1.41;100.00;102391.31;4922963;29;20130;-75
2022/02/12 06:21:15;;;;;;;4.60;0.90;;;;;;;1.41;100.00;102391.31;4923760;29;20035;-75
2022/02/12 06:23:41;;;;;;;4.65;1.70;;;;;;;1.37;100.00;102390.22;4921952;29;20485;-76
2022/02/12 06:26:06;;;;;;;1.83;1.13;;;;;;;1.33;100.00;102398.91;4920200;29;20196;-75
2022/02/12 06:28:32;;;;;;;1.92;1.27;;;;;;;1.35;100.00;102384.34;4906093;29;20122;-75
2022/02/12 06:31:01;;;;;;;1.80;1.10;;;;;;;1.33;100.00;102383.00;4930967;28;20035;-75
2022/02/12 06:33:26;;;;;;;2.25;1.20;;;;;;;1.34;100.00;102384.59;4925069;29;20057;-75
2022/02/12 06:35:52;;;;;;;1.33;0.98;;;;;;;1.32;100.00;102378.72;4920362;29;20428;-75
2022/02/12 06:38:18;;;;;;;1.83;1.30;;;;;;;1.32;100.00;102381.38;4907462;29;20531;-74
2022/02/12 06:40:43;;;;;;;1.02;0.80;;;;;;;1.33;100.00;102391.75;4919223;29;20039;-74
2022/02/12 06:43:09;;;;;;;2.00;0.85;;;;;;;1.28;100.00;102385.63;4923987;28;20063;-75
2022/02/12 06:45:35;;;;;;;3.63;1.35;;;;;;;1.31;100.00;102377.13;4923179;29;20122;-72
2022/02/12 06:48:00;;;;;;;4.88;0.90;;;;;;;1.33;100.00;102375.03;4926088;29;20031;-74
2022/02/12 06:50:26;;;;;;;9.60;1.75;;;;;;;1.32;100.00;102376.88;4927980;29;20095;-75
2022/02/12 06:52:52;;;;;;;1.55;0.80;;;;;;;1.30;100.00;102368.38;4938261;28;20031;-74
2022/02/12 06:55:17;;;;;;;0.90;0.77;;;;;;;1.32;100.00;102371.56;4921379;29;21033;-75
2022/02/12 06:57:42;;;;;;;1.33;0.95;;;;;;;1.33;100.00;102372.38;4909837;29;20050;-75
2022/02/12 07:00:08;;;;;;;2.05;0.82;;;;;;;1.34;100.00;102368.66;4921072;29;20072;-74
2022/02/12 07:02:34;;;;;;;4.70;1.65;;;;;;;1.35;100.00;102373.75;4940476;28;20118;-74
2022/02/12 07:05:00;;;;;;;0.70;0.70;;;;;;;1.33;100.00;102375.03;4939693;29;20613;-74
2022/02/12 07:07:25;;;;;;;1.80;1.30;;;;;;;1.40;100.00;102373.78;4922605;29;20092;-75
2022/02/12 07:09:51;;;;;;;1.48;0.80;;;;;;;1.42;100.00;102370.88;4922785;29;20060;-74
2022/02/12 07:12:18;;;;;;;2.78;1.23;;;;;;;1.46;100.00;102372.78;4928260;29;20461;-75
2022/02/12 07:14:43;;;;;;;1.20;1.10;;;;;;;1.46;100.00;102374.63;4923927;29;20036;-75
2022/02/12 07:17:08;;;;;;;0.52;0.52;;;;;;;1.47;100.00;102379.69;4907027;29;20044;-74
2022/02/12 07:19:36;;;;;;;1.00;0.80;;;;;;;1.47;100.00;102379.69;4923050;29;20070;-75
2022/02/12 07:22:02;;;;;;;1.42;1.25;;;;;;;1.51;100.00;102380.78;4924574;29;20717;-75
2022/02/12 07:24:28;;;;;;;1.25;0.85;;;;;;;1.54;100.00;102377.63;4926449;29;20119;-74
2022/02/12 07:26:53;;;;;;;2.00;1.10;;;;;;;1.54;100.00;102375.00;4927332;29;20039;-75
2022/02/12 07:29:18;;;;;;;2.70;1.60;;;;;;;1.54;100.00;102367.03;4923847;29;20044;-74
2022/02/12 07:31:44;;;;;;;1.42;1.20;;;;;;;1.62;100.00;102355.94;4913330;29;20032;-76
2022/02/12 07:34:14;;;;;;;1.58;0.73;;;;;;;1.63;100.00;102357.53;4923886;29;20665;-74
2022/02/12 07:36:39;;;;;;;1.92;1.08;;;;;;;1.63;100.00;102360.19;4921504;29;20036;-72
2022/02/12 07:39:05;;;;;;;5.60;1.35;;;;;;;1.60;100.00;102363.38;4923939;29;20087;-74
2022/02/12 07:41:34;;;;;;;2.63;1.13;;;;;;;1.61;100.00;102372.09;4940664;28;20508;-74
2022/02/12 07:44:00;;;;;;;2.10;1.15;;;;;;;1.63;100.00;102370.81;4938912;28;20036;-72
2022/02/12 07:46:26;;;;;;;1.45;0.90;;;;;;;1.67;100.00;102365.78;4922501;29;20055;-72
2022/02/12 07:48:51;;;;;;;0.95;0.80;;;;;;;1.77;100.00;102379.16;4923284;29;20040;-75
2022/02/12 07:51:16;;;;;;;1.10;0.73;;;;;;;1.77;100.00;102379.97;4925263;29;20670;-74
2022/02/12 07:53:42;;;;;;;1.58;1.02;;;;;;;1.76;100.00;102377.56;4927095;29;20036;-74
2022/02/12 07:56:07;;;;;;;1.42;0.98;;;;;;;1.72;100.00;102371.94;4941461;29;20039;-73
2022/02/12 07:58:33;;;;;;;4.90;1.20;;;;;;;1.76;100.00;102359.75;4922693;29;20044;-74
2022/02/12 08:00:58;;;;;;;1.08;0.88;;;;;;;1.78;100.00;102364.84;4924971;29;20050;-74
2022/02/12 08:03:24;;;;;;;1.60;1.10;;;;;;;1.89;100.00;102360.41;4925688;29;20045;-74
2022/02/12 08:05:49;;;;;;;1.00;0.65;;;;;;;1.94;100.00;102360.41;4925925;29;20046;-74
2022/02/12 08:08:15;;;;;;;2.60;0.82;;;;;;;1.89;100.00;102355.09;4919572;29;20071;-74
2022/02/12 08:13:24;;;;;;;2.90;0.80;;;;;;;2.03;100.00;102354.41;4918820;29;20061;-74
2022/02/12 08:15:50;;;;;;;1.73;0.73;;;;;;;2.07;100.00;102357.34;4922882;29;20038;-71
2022/02/12 08:18:15;;;;;;;0.57;0.57;;;;;;;2.11;100.00;102361.09;4921368;29;20051;-72
2022/02/12 08:20:41;;;;;;;0.55;0.50;;;;;;;2.16;100.00;102361.13;4923503;29;20031;-73
2022/02/12 08:23:07;;;;;;;1.15;0.70;;;;;;;2.25;100.00;102360.38;4922183;28;20043;-72
2022/02/12 08:25:32;;;;;;;1.00;0.68;;;;;;;2.33;100.00;102359.09;4908446;29;20040;-73
2022/02/12 08:27:58;;;;;;;1.50;1.02;;;;;;;2.38;100.00;102359.16;4922314;29;20051;-72
2022/02/12 08:30:23;;;;;;;1.52;0.80;;;;;;;2.52;100.00;102355.75;4919522;29;20042;-72
2022/02/12 08:32:49;;;;;;;2.00;1.00;;;;;;;2.53;100.00;102354.72;4921947;29;20039;-71
2022/02/12 08:35:15;;;;;;;0.65;0.65;;;;;;;2.65;100.00;102360.59;4925364;29;20038;-72
2022/02/12 08:37:42;;;;;;;2.95;1.45;;;;;;;2.79;100.00;102360.91;4924824;29;20118;-72
2022/02/12 08:40:11;;;;;;;3.08;1.10;;;;;;;2.91;100.00;102348.19;4937797;28;20550;-72
2022/02/12 08:42:37;;;;;;;5.88;1.35;;;;;;;3.04;100.00;102357.56;4921915;29;20031;-72
2022/02/12 08:45:03;;;;;;;2.60;1.85;;;;;;;3.15;100.00;102361.84;4923821;29;20404;-72
2022/02/12 08:47:29;;;;;;;5.20;1.60;;;;;;;3.31;99.50;102369.59;4923720;29;20086;-72
2022/02/12 08:49:55;;;;;;;8.98;1.02;;;;;;;3.36;99.18;102360.81;4925075;29;20449;-72
2022/02/12 08:52:20;;;;;;;1.30;0.88;;;;;;;3.51;98.91;102358.97;4924316;29;20039;-72
2022/02/12 08:54:45;;;;;;;4.05;1.30;;;;;;;3.58;98.42;102348.06;4920610;29;20040;-72
2022/02/12 08:57:11;;;;;;;2.28;0.95;;;;;;;3.67;97.93;102357.13;4923984;29;20031;-72
2022/02/12 08:59:36;;;;;;;2.95;1.38;;;;;;;3.75;97.43;102356.59;4920558;29;20035;-72
2022/02/12 09:02:02;;;;;;;10.35;1.33;;;;;;;3.66;96.71;102361.63;4919649;28;20183;-72
2022/02/12 09:04:28;;;;;;;0.77;0.77;;;;;;;3.70;96.73;102359.25;4911749;28;20087;-72
2022/02/12 09:06:53;;;;;;;1.65;1.20;;;;;;;3.86;95.84;102349.38;4918405;29;20078;-72
2022/02/12 09:09:20;;;;;;;1.50;0.90;;;;;;;3.89;95.46;102356.84;4918640;29;20588;-72
2022/02/12 09:11:46;;;;;;;1.75;1.30;;;;;;;4.08;95.01;102349.91;4921021;29;20046;-72
2022/02/12 09:14:12;;;;;;;3.40;1.05;;;;;;;4.16;93.47;102344.03;4937736;29;20048;-72
2022/02/12 09:16:39;;;;;;;3.15;0.70;;;;;;;4.26;93.16;102341.31;4921522;29;20031;-72
2022/02/12 09:19:06;;;;;;;2.50;0.90;;;;;;;4.32;92.34;102342.91;4924770;28;20141;-71
2022/02/12 09:21:32;;;;;;;5.72;1.33;;;;;;;4.36;92.28;102341.28;4923032;29;20050;-72
2022/02/12 09:23:58;;;;;;;1.05;0.75;;;;;;;4.45;91.51;102339.69;4919769;29;20678;-72
2022/02/12 09:26:30;;;;;;;3.78;1.40;;;;;;;4.57;91.37;102346.31;4918348;29;20048;-72
2022/02/12 09:29:04;;;;;;;4.47;1.23;;;;;;;4.68;90.48;102340.94;4923022;29;20086;-72
2022/02/12 09:31:30;;;;;;;5.60;1.10;;;;;;;4.83;90.20;102338.19;4922420;29;20582;-72
2022/02/12 09:33:56;;;;;;;2.42;1.08;;;;;;;4.63;87.97;102333.75;4922299;29;20481;-72
2022/02/12 09:36:22;;;;;;;1.98;0.98;;;;;;;4.58;88.97;102328.44;4920430;29;20083;-71
2022/02/12 09:38:48;;;;;;;3.63;0.70;;;;;;;4.63;88.26;102328.41;4912531;29;20040;-72
2022/02/12 09:41:15;;;;;;;2.80;1.40;;;;;;;4.61;88.17;102313.75;4934819;29;20118;-72
2022/02/12 09:43:42;;;;;;;3.60;1.15;;;;;;;4.58;87.80;102315.09;4921546;29;20039;-72
2022/02/12 09:46:31;;;;;;;2.22;1.20;;;;;;;4.57;87.85;102314.28;4915783;29;20040;-72
2022/02/12 09:48:58;;;;;;;2.00;0.80;;;;;;;4.54;86.79;102304.19;4922102;29;20053;-71
2022/02/12 09:51:24;;;;;;;3.92;1.38;;;;;;;4.55;85.98;102310.28;4921382;29;20111;-74
2022/02/12 09:53:50;;;;;;;3.33;1.05;;;;;;;4.58;86.36;102304.44;4923779;29;20103;-78
2022/02/12 09:56:16;;;;;;;1.95;0.80;;;;;;;4.57;86.45;102302.81;4919527;29;20035;-76
2022/02/12 09:58:42;;;;;;;3.35;1.33;;;;;;;4.71;86.35;102298.50;4916757;29;20165;-71
2022/02/12 10:01:08;;;;;;;3.63;1.00;;;;;;;4.85;85.68;102296.81;4922890;29;20114;-76
2022/02/12 10:03:34;;;;;;;1.80;0.93;;;;;;;4.93;85.33;102298.91;4915072;29;20819;-71
2022/02/12 10:06:00;;;;;;;1.27;1.00;;;;;;;4.92;84.67;102299.97;4920738;29;20063;-71
2022/02/12 10:08:25;;;;;;;1.83;0.80;;;;;;;5.04;83.37;102296.97;4917688;28;20036;-71
2022/02/12 10:10:52;;;;;;;4.35;1.02;;;;;;;4.99;83.28;102299.69;4918644;29;20094;-77
2022/02/12 10:13:19;;;;;;;2.42;0.75;;;;;;;5.04;83.46;102287.09;4923688;29;20040;-71
2022/02/12 10:15:58;;;;;;;2.83;1.20;;;;;;;5.15;83.16;102293.97;4923004;29;20036;-71
2022/02/12 10:18:25;;;;;;;3.08;0.93;;;;;;;5.14;83.00;102286.22;4916359;29;20062;-71
2022/02/12 10:20:54;;;;;;;4.35;0.93;;;;;;;5.14;82.48;102289.72;4916378;29;20722;-77
2022/02/12 10:23:21;;;;;;;4.75;0.90;;;;;;;5.04;81.87;102279.09;4929223;29;20098;-71
2022/02/12 10:26:10;;;;;;;3.67;0.60;;;;;;;5.12;82.27;102278.50;4929100;29;20086;-71
2022/02/12 10:28:38;;;;;;;1.13;0.43;;;;;;;5.14;82.30;102276.34;4925207;29;20107;-75
2022/02/12 10:31:04;;;;;;;2.58;0.80;;;;;;;5.18;82.62;102272.06;4927553;29;20027;-72
2022/02/12 10:33:38;;;;;;;5.07;1.10;;;;;;;5.24;81.96;102265.59;4927676;29;20035;-71
2022/02/12 10:36:04;;;;;;;1.08;0.60;;;;;;;5.33;81.92;102263.94;4925849;29;20098;-73
2022/02/12 10:38:34;;;;;;;1.52;0.77;;;;;;;5.28;79.15;102255.94;4925076;29;20028;-78
2022/02/12 10:41:07;;;;;;;1.45;0.80;;;;;;;5.47;79.15;102264.06;4922644;29;20083;-72
2022/02/12 10:43:33;;;;;;;1.45;0.80;;;;;;;5.56;78.23;102256.25;4928212;29;20544;-75
2022/02/12 10:46:00;;;;;;;2.83;1.00;;;;;;;5.60;78.40;102251.94;4925338;29;20118;-72
2022/02/12 10:48:25;;;;;;;0.95;0.90;;;;;;;5.78;77.82;102248.56;4924653;29;20035;-71
2022/02/12 10:51:00;;;;;;;0.68;0.68;;;;;;;5.86;77.07;102250.66;4923189;28;20200;-77
2022/02/12 10:53:26;;;;;;;5.97;0.90;;;;;;;5.89;75.36;102245.53;4919196;29;20039;-71
2022/02/12 10:55:59;;;;;;;2.92;0.63;;;;;;;5.90;75.59;102235.63;4925938;29;20488;-75
2022/02/12 10:58:25;;;;;;;1.85;0.90;;;;;;;6.02;75.53;102230.69;4923895;29;20512;-71
2022/02/12 11:00:51;;;;;;;1.00;0.80;;;;;;;6.11;75.48;102237.00;4922974;29;20043;-75
2022/02/12 11:03:18;;;;;;;3.03;0.90;;;;;;;6.16;74.23;102231.59;4927342;29;20032;-74
2022/02/12 11:06:04;;;;;;;0.77;0.63;;;;;;;6.18;73.86;102222.19;4925482;29;20039;-72
2022/02/12 11:08:30;;;;;;;4.55;0.90;;;;;;;6.19;72.21;102217.66;4926795;29;20401;-72
2022/02/12 11:10:57;;;;;;;0.50;0.50;;;;;;;6.26;70.07;102215.41;4924836;29;20036;-74
2022/02/12 11:13:22;;;;;;;1.48;0.60;;;;;;;6.22;69.28;102204.50;4926774;29;20031;-71
2022/02/12 11:15:51;;;;;;;0.50;0.50;;;;;;;6.35;69.80;102211.00;4925234;29;20445;-72
2022/02/12 11:18:22;;;;;;;0.28;0.28;;;;;;;6.33;69.64;102205.16;4926043;29;20485;-75
2022/02/12 11:20:49;;;;;;;1.92;0.60;;;;;;;6.38;69.05;102205.09;4925774;29;20047;-76
2022/02/12 11:23:21;;;;;;;1.60;0.85;;;;;;;6.38;70.04;102195.19;4927178;29;20029;-72
2022/02/12 11:26:01;;;;;;;1.55;0.60;;;;;;;6.44;68.42;102184.41;4922577;29;20032;-75
2022/02/12 11:28:37;;;;;;;0.50;0.50;;;;;;;6.48;68.28;102185.44;4925118;29;20102;-71
2022/02/12 11:31:25;;;;;;;1.02;0.40;;;;;;;6.53;68.33;102166.63;4925926;29;20126;-72